sensor_id;sensor_type;location;lat;lon;timestamp;temperature;humidity
11229;DHT22;5671;47.936;8.716;2022-11-10T01:33:28;7.60;91.00
11229;DHT22;5671;47.936;8.716;2022-11-10T01:39:19;7.50;90.50
11229;DHT22;5671;47.936;8.716;2022-11-10T01:41:47;7.40;90.30
11229;DHT22;5671;47.936;8.716;2022-11-10T01:44:25;7.40;90.10
11229;DHT22;5671;47.936;8.716;2022-11-10T01:47:02;7.30;90.00
11229;DHT22;5671;47.936;8.716;2022-11-10T01:49:32;7.30;90.10
11229;DHT22;5671;47.936;8.716;2022-11-10T01:52:12;7.20;90.30
11229;DHT22;5671;47.936;8.716;2022-11-10T01:54:43;7.10;90.20
11229;DHT22;5671;47.936;8.716;2022-11-10T01:57:29;7.10;90.50
11229;DHT22;5671;47.936;8.716;2022-11-10T01:59:56;7.00;90.70
11229;DHT22;5671;47.936;8.716;2022-11-10T02:02:26;6.90;90.70
11229;DHT22;5671;47.936;8.716;2022-11-10T02:04:57;6.90;90.80
11229;DHT22;5671;47.936;8.716;2022-11-10T02:07:25;6.80;90.60
11229;DHT22;5671;47.936;8.716;2022-11-10T02:09:52;6.80;90.50
11229;DHT22;5671;47.936;8.716;2022-11-10T02:12:20;6.70;90.30
11229;DHT22;5671;47.936;8.716;2022-11-10T02:15:42;6.70;90.30
11229;DHT22;5671;47.936;8.716;2022-11-10T02:19:03;6.60;90.00
11229;DHT22;5671;47.936;8.716;2022-11-10T02:21:57;6.50;89.70
11229;DHT22;5671;47.936;8.716;2022-11-10T02:24:24;6.40;89.30
11229;DHT22;5671;47.936;8.716;2022-11-10T02:27:05;6.30;89.50
11229;DHT22;5671;47.936;8.716;2022-11-10T02:29:48;6.20;89.30
11229;DHT22;5671;47.936;8.716;2022-11-10T02:39:17;6.00;89.70
11229;DHT22;5671;47.936;8.716;2022-11-10T02:41:54;5.90;90.40
11229;DHT22;5671;47.936;8.716;2022-11-10T02:44:27;5.80;90.40
11229;DHT22;5671;47.936;8.716;2022-11-10T02:46:57;5.80;90.90
11229;DHT22;5671;47.936;8.716;2022-11-10T02:49:38;5.80;91.10
11229;DHT22;5671;47.936;8.716;2022-11-10T02:52:23;5.80;91.30
11229;DHT22;5671;47.936;8.716;2022-11-10T02:55:04;5.70;91.20
11229;DHT22;5671;47.936;8.716;2022-11-10T02:57:31;5.70;91.00
11229;DHT22;5671;47.936;8.716;2022-11-10T03:03:23;5.60;91.10
11229;DHT22;5671;47.936;8.716;2022-11-10T03:06:11;5.50;91.20
11229;DHT22;5671;47.936;8.716;2022-11-10T03:35:27;5.30;91.70
11229;DHT22;5671;47.936;8.716;2022-11-10T03:37:54;5.30;91.50
11229;DHT22;5671;47.936;8.716;2022-11-10T03:40:40;5.20;91.30
11229;DHT22;5671;47.936;8.716;2022-11-10T03:43:11;5.20;91.10
11229;DHT22;5671;47.936;8.716;2022-11-10T03:45:42;5.20;91.00
11229;DHT22;5671;47.936;8.716;2022-11-10T03:48:29;5.20;90.90
11229;DHT22;5671;47.936;8.716;2022-11-10T03:51:20;5.20;90.90
11229;DHT22;5671;47.936;8.716;2022-11-10T03:53:55;5.10;91.10
11229;DHT22;5671;47.936;8.716;2022-11-10T03:56:22;5.10;91.40
11229;DHT22;5671;47.936;8.716;2022-11-10T03:58:52;5.10;91.70
11229;DHT22;5671;47.936;8.716;2022-11-10T04:01:19;5.10;91.70
11229;DHT22;5671;47.936;8.716;2022-11-10T04:03:48;5.10;91.50
11229;DHT22;5671;47.936;8.716;2022-11-10T04:09:39;5.10;91.20
11229;DHT22;5671;47.936;8.716;2022-11-10T04:12:21;5.00;91.20
11229;DHT22;5671;47.936;8.716;2022-11-10T04:15:08;5.00;90.90
11229;DHT22;5671;47.936;8.716;2022-11-10T04:18:10;4.90;90.80
11229;DHT22;5671;47.936;8.716;2022-11-10T04:20:55;4.90;90.90
11229;DHT22;5671;47.936;8.716;2022-11-10T04:23:33;4.90;91.00
11229;DHT22;5671;47.936;8.716;2022-11-10T04:26:04;4.90;91.20
11229;DHT22;5671;47.936;8.716;2022-11-10T04:28:52;4.90;91.20
11229;DHT22;5671;47.936;8.716;2022-11-10T04:31:30;4.90;91.70
11229;DHT22;5671;47.936;8.716;2022-11-10T04:33:59;4.90;92.10
11229;DHT22;5671;47.936;8.716;2022-11-10T04:43:38;4.90;92.50
11229;DHT22;5671;47.936;8.716;2022-11-10T05:10:27;4.70;92.70
11229;DHT22;5671;47.936;8.716;2022-11-10T07:54:49;4.40;91.60
11229;DHT22;5671;47.936;8.716;2022-11-10T07:57:21;4.40;91.90
11229;DHT22;5671;47.936;8.716;2022-11-10T16:09:31;8.50;78.30
11229;DHT22;5671;47.936;8.716;2022-11-10T16:11:58;8.30;78.30
11229;DHT22;5671;47.936;8.716;2022-11-10T16:14:25;8.20;78.40
11229;DHT22;5671;47.936;8.716;2022-11-10T16:16:53;8.00;78.80
11229;DHT22;5671;47.936;8.716;2022-11-10T16:19:20;7.90;79.30
11229;DHT22;5671;47.936;8.716;2022-11-10T16:21:49;7.80;79.50
11229;DHT22;5671;47.936;8.716;2022-11-10T16:24:16;7.70;79.30
11229;DHT22;5671;47.936;8.716;2022-11-10T16:26:44;7.60;79.50
11229;DHT22;5671;47.936;8.716;2022-11-10T16:32:19;7.40;80.50
11229;DHT22;5671;47.936;8.716;2022-11-10T16:34:46;7.20;80.60
11229;DHT22;5671;47.936;8.716;2022-11-10T16:37:14;7.10;80.70
11229;DHT22;5671;47.936;8.716;2022-11-10T16:39:53;7.00;80.60
11229;DHT22;5671;47.936;8.716;2022-11-10T16:42:22;6.90;80.80
11229;DHT22;5671;47.936;8.716;2022-11-10T16:44:49;6.80;80.90
11229;DHT22;5671;47.936;8.716;2022-11-10T16:47:48;6.70;81.20
11229;DHT22;5671;47.936;8.716;2022-11-10T16:50:34;6.60;81.10
11229;DHT22;5671;47.936;8.716;2022-11-10T16:53:37;6.50;82.00
11229;DHT22;5671;47.936;8.716;2022-11-10T16:56:13;6.40;81.60
11229;DHT22;5671;47.936;8.716;2022-11-10T16:58:45;6.30;82.10
11229;DHT22;5671;47.936;8.716;2022-11-10T17:04:46;6.20;82.00
11229;DHT22;5671;47.936;8.716;2022-11-10T17:07:58;6.10;81.60
11229;DHT22;5671;47.936;8.716;2022-11-10T17:10:51;6.00;81.70
11229;DHT22;5671;47.936;8.716;2022-11-10T17:13:28;5.90;81.70
11229;DHT22;5671;47.936;8.716;2022-11-10T17:16:02;5.80;82.30
11229;DHT22;5671;47.936;8.716;2022-11-10T17:18:30;5.80;82.30
11229;DHT22;5671;47.936;8.716;2022-11-10T17:20:58;5.70;82.80
11229;DHT22;5671;47.936;8.716;2022-11-10T17:23:25;5.60;82.80
11229;DHT22;5671;47.936;8.716;2022-11-10T17:25:54;5.50;82.60
11229;DHT22;5671;47.936;8.716;2022-11-10T17:28:38;5.40;82.20
11229;DHT22;5671;47.936;8.716;2022-11-10T17:31:09;5.30;84.10
11229;DHT22;5671;47.936;8.716;2022-11-10T17:33:38;5.20;84.90
11229;DHT22;5671;47.936;8.716;2022-11-10T17:36:11;5.20;84.70
11229;DHT22;5671;47.936;8.716;2022-11-10T17:38:39;5.20;84.70
11229;DHT22;5671;47.936;8.716;2022-11-10T17:41:14;5.10;84.70
11229;DHT22;5671;47.936;8.716;2022-11-10T17:43:42;5.10;84.70
11229;DHT22;5671;47.936;8.716;2022-11-10T17:46:11;5.00;84.70
11229;DHT22;5671;47.936;8.716;2022-11-10T17:48:38;5.00;84.90
11229;DHT22;5671;47.936;8.716;2022-11-10T17:51:09;4.90;84.40
11229;DHT22;5671;47.936;8.716;2022-11-10T17:53:39;4.90;84.30
11229;DHT22;5671;47.936;8.716;2022-11-10T17:56:09;4.80;84.30
11229;DHT22;5671;47.936;8.716;2022-11-10T17:58:38;4.80;84.20
11229;DHT22;5671;47.936;8.716;2022-11-10T18:04:11;4.70;84.00
11229;DHT22;5671;47.936;8.716;2022-11-10T18:06:44;4.60;84.20
11229;DHT22;5671;47.936;8.716;2022-11-10T18:09:37;4.50;84.50
11229;DHT22;5671;47.936;8.716;2022-11-10T18:12:07;4.50;84.80
11229;DHT22;5671;47.936;8.716;2022-11-10T18:14:34;4.40;84.70
11229;DHT22;5671;47.936;8.716;2022-11-10T18:17:05;4.40;84.80
11229;DHT22;5671;47.936;8.716;2022-11-10T18:19:37;4.40;84.60
11229;DHT22;5671;47.936;8.716;2022-11-10T18:22:04;4.30;84.60
11229;DHT22;5671;47.936;8.716;2022-11-10T18:31:28;4.20;85.20
11229;DHT22;5671;47.936;8.716;2022-11-10T18:34:55;4.10;85.10
11229;DHT22;5671;47.936;8.716;2022-11-10T18:40:42;4.00;84.30
11229;DHT22;5671;47.936;8.716;2022-11-10T18:43:33;3.90;84.20
11229;DHT22;5671;47.936;8.716;2022-11-10T18:46:00;3.90;84.30
11229;DHT22;5671;47.936;8.716;2022-11-10T18:48:27;3.80;84.20
11229;DHT22;5671;47.936;8.716;2022-11-10T18:50:54;3.80;85.60
11229;DHT22;5671;47.936;8.716;2022-11-10T18:53:26;3.70;85.40
11229;DHT22;5671;47.936;8.716;2022-11-10T18:55:57;3.70;84.80
11229;DHT22;5671;47.936;8.716;2022-11-10T18:58:24;3.60;84.40
11229;DHT22;5671;47.936;8.716;2022-11-10T19:01:00;3.50;85.00
11229;DHT22;5671;47.936;8.716;2022-11-10T19:03:27;3.50;85.50
11229;DHT22;5671;47.936;8.716;2022-11-10T19:05:56;3.40;85.30
11229;DHT22;5671;47.936;8.716;2022-11-10T19:08:24;3.40;85.40
11229;DHT22;5671;47.936;8.716;2022-11-10T19:10:53;3.40;85.20
11229;DHT22;5671;47.936;8.716;2022-11-10T19:13:22;3.30;85.30
11229;DHT22;5671;47.936;8.716;2022-11-10T19:15:49;3.30;85.80
11229;DHT22;5671;47.936;8.716;2022-11-10T19:18:16;3.30;85.40
11229;DHT22;5671;47.936;8.716;2022-11-10T19:20:47;3.20;85.20
11229;DHT22;5671;47.936;8.716;2022-11-10T19:23:25;3.20;85.40
11229;DHT22;5671;47.936;8.716;2022-11-10T19:25:58;3.20;85.60
11229;DHT22;5671;47.936;8.716;2022-11-10T19:28:27;3.10;85.50
11229;DHT22;5671;47.936;8.716;2022-11-10T19:31:04;3.10;85.70
11229;DHT22;5671;47.936;8.716;2022-11-10T19:33:34;3.00;85.60
11229;DHT22;5671;47.936;8.716;2022-11-10T19:36:04;3.00;85.40
11229;DHT22;5671;47.936;8.716;2022-11-10T19:38:31;2.90;85.50
11229;DHT22;5671;47.936;8.716;2022-11-10T19:41:02;2.90;85.90
11229;DHT22;5671;47.936;8.716;2022-11-10T19:43:31;2.90;86.00
11229;DHT22;5671;47.936;8.716;2022-11-10T19:46:00;2.80;86.00
11229;DHT22;5671;47.936;8.716;2022-11-10T19:48:28;2.80;85.90
11229;DHT22;5671;47.936;8.716;2022-11-10T19:50:56;2.80;85.70
11229;DHT22;5671;47.936;8.716;2022-11-10T19:53:35;2.80;85.80
11229;DHT22;5671;47.936;8.716;2022-11-10T19:56:06;2.70;86.00
11229;DHT22;5671;47.936;8.716;2022-11-10T19:58:36;2.70;85.70
11229;DHT22;5671;47.936;8.716;2022-11-10T20:01:04;2.70;85.90
11229;DHT22;5671;47.936;8.716;2022-11-10T20:03:31;2.70;86.20
11229;DHT22;5671;47.936;8.716;2022-11-10T20:06:00;2.60;86.70
11229;DHT22;5671;47.936;8.716;2022-11-10T20:08:28;2.60;86.70
11229;DHT22;5671;47.936;8.716;2022-11-10T20:11:00;2.60;86.90
11229;DHT22;5671;47.936;8.716;2022-11-10T20:13:28;2.60;86.70
11229;DHT22;5671;47.936;8.716;2022-11-10T20:15:57;2.60;86.80
11229;DHT22;5671;47.936;8.716;2022-11-10T20:18:39;2.60;86.80
11229;DHT22;5671;47.936;8.716;2022-11-10T20:21:18;2.60;86.90
11229;DHT22;5671;47.936;8.716;2022-11-10T20:24:00;2.60;86.80
11229;DHT22;5671;47.936;8.716;2022-11-10T20:26:27;2.60;86.60
11229;DHT22;5671;47.936;8.716;2022-11-10T20:28:58;2.50;86.60
11229;DHT22;5671;47.936;8.716;2022-11-10T20:31:36;2.50;86.50
11229;DHT22;5671;47.936;8.716;2022-11-10T20:34:03;2.50;87.10
11229;DHT22;5671;47.936;8.716;2022-11-10T20:36:33;2.50;87.50
11229;DHT22;5671;47.936;8.716;2022-11-10T20:39:00;2.50;87.60
11229;DHT22;5671;47.936;8.716;2022-11-10T20:41:28;2.50;87.90
11229;DHT22;5671;47.936;8.716;2022-11-10T20:43:57;2.50;88.40
11229;DHT22;5671;47.936;8.716;2022-11-10T20:46:24;2.50;88.40
11229;DHT22;5671;47.936;8.716;2022-11-10T20:48:54;2.60;88.40
11229;DHT22;5671;47.936;8.716;2022-11-10T20:51:21;2.60;88.80
11229;DHT22;5671;47.936;8.716;2022-11-10T20:53:48;2.60;88.70
11229;DHT22;5671;47.936;8.716;2022-11-10T20:56:21;2.60;88.80
11229;DHT22;5671;47.936;8.716;2022-11-10T20:58:48;2.60;88.80
11229;DHT22;5671;47.936;8.716;2022-11-10T21:01:18;2.60;88.90
11229;DHT22;5671;47.936;8.716;2022-11-10T21:03:53;2.60;88.90
11229;DHT22;5671;47.936;8.716;2022-11-10T21:06:23;2.60;88.70
11229;DHT22;5671;47.936;8.716;2022-11-10T21:08:50;2.60;88.50
11229;DHT22;5671;47.936;8.716;2022-11-10T21:11:21;2.60;88.20
11229;DHT22;5671;47.936;8.716;2022-11-10T21:14:02;2.60;88.40
11229;DHT22;5671;47.936;8.716;2022-11-10T21:16:29;2.60;88.60
11229;DHT22;5671;47.936;8.716;2022-11-10T21:18:57;2.60;88.70
11229;DHT22;5671;47.936;8.716;2022-11-10T21:21:26;2.60;88.90
11229;DHT22;5671;47.936;8.716;2022-11-10T21:23:58;2.60;88.50
11229;DHT22;5671;47.936;8.716;2022-11-10T21:26:26;2.60;88.20
11229;DHT22;5671;47.936;8.716;2022-11-10T21:28:53;2.60;88.20
11229;DHT22;5671;47.936;8.716;2022-11-10T21:31:20;2.60;88.40
11229;DHT22;5671;47.936;8.716;2022-11-10T21:33:47;2.60;88.70
11229;DHT22;5671;47.936;8.716;2022-11-10T21:36:15;2.60;88.60
11229;DHT22;5671;47.936;8.716;2022-11-10T21:38:47;2.60;89.00
11229;DHT22;5671;47.936;8.716;2022-11-10T21:41:14;2.60;89.30
11229;DHT22;5671;47.936;8.716;2022-11-10T21:43:41;2.60;89.50
11229;DHT22;5671;47.936;8.716;2022-11-10T21:46:08;2.70;89.30
11229;DHT22;5671;47.936;8.716;2022-11-10T21:58:49;2.70;89.00
11229;DHT22;5671;47.936;8.716;2022-11-10T22:01:20;2.70;88.80
11229;DHT22;5671;47.936;8.716;2022-11-10T22:03:47;2.70;88.30
11229;DHT22;5671;47.936;8.716;2022-11-10T22:06:17;2.60;87.80
11229;DHT22;5671;47.936;8.716;2022-11-10T22:08:55;2.60;88.00
11229;DHT22;5671;47.936;8.716;2022-11-10T22:11:24;2.60;88.40
11229;DHT22;5671;47.936;8.716;2022-11-10T22:14:34;2.50;88.70
11229;DHT22;5671;47.936;8.716;2022-11-10T22:18:04;2.50;89.00
11229;DHT22;5671;47.936;8.716;2022-11-10T22:21:32;2.50;89.10
11229;DHT22;5671;47.936;8.716;2022-11-10T22:24:27;2.50;89.10
11229;DHT22;5671;47.936;8.716;2022-11-10T22:27:06;2.50;89.10
11229;DHT22;5671;47.936;8.716;2022-11-10T22:29:45;2.40;89.20
11229;DHT22;5671;47.936;8.716;2022-11-10T22:32:20;2.40;89.20
11229;DHT22;5671;47.936;8.716;2022-11-10T22:34:50;2.30;89.20
11229;DHT22;5671;47.936;8.716;2022-11-10T22:37:19;2.30;89.30
11229;DHT22;5671;47.936;8.716;2022-11-10T22:39:57;2.30;88.90
11229;DHT22;5671;47.936;8.716;2022-11-10T22:42:45;2.30;88.40
11229;DHT22;5671;47.936;8.716;2022-11-10T22:49:26;2.20;88.30
11229;DHT22;5671;47.936;8.716;2022-11-10T22:51:57;2.20;88.70
11229;DHT22;5671;47.936;8.716;2022-11-10T22:57:54;2.20;89.50
11229;DHT22;5671;47.936;8.716;2022-11-10T23:04:02;2.10;88.70
11229;DHT22;5671;47.936;8.716;2022-11-10T23:06:32;2.10;89.00
11229;DHT22;5671;47.936;8.716;2022-11-10T23:09:05;2.10;89.00
11229;DHT22;5671;47.936;8.716;2022-11-10T23:11:43;2.00;89.10
11229;DHT22;5671;47.936;8.716;2022-11-10T23:14:12;2.00;89.20
11229;DHT22;5671;47.936;8.716;2022-11-10T23:16:44;2.00;89.30
11229;DHT22;5671;47.936;8.716;2022-11-10T23:19:20;2.00;89.40
11229;DHT22;5671;47.936;8.716;2022-11-10T23:21:58;1.90;89.30
11229;DHT22;5671;47.936;8.716;2022-11-10T23:24:33;1.90;89.30
11229;DHT22;5671;47.936;8.716;2022-11-10T23:29:56;1.90;89.80
11229;DHT22;5671;47.936;8.716;2022-11-10T23:32:27;1.90;89.40
11229;DHT22;5671;47.936;8.716;2022-11-10T23:34:57;1.90;89.40
11229;DHT22;5671;47.936;8.716;2022-11-10T23:37:32;1.90;89.40
11229;DHT22;5671;47.936;8.716;2022-11-10T23:39:59;1.90;89.00
11229;DHT22;5671;47.936;8.716;2022-11-10T23:42:26;1.80;88.80
11229;DHT22;5671;47.936;8.716;2022-11-10T23:44:53;1.80;88.70
11229;DHT22;5671;47.936;8.716;2022-11-10T23:47:20;1.80;88.60
11229;DHT22;5671;47.936;8.716;2022-11-10T23:49:47;1.80;88.70
11229;DHT22;5671;47.936;8.716;2022-11-10T23:52:17;1.70;88.80
11229;DHT22;5671;47.936;8.716;2022-11-10T23:54:46;1.70;88.60
11229;DHT22;5671;47.936;8.716;2022-11-10T23:57:13;1.70;88.50
11229;DHT22;5671;47.936;8.716;2022-11-10T23:59:44;1.60;88.70
